Time;durP1;ratioP1;P1;durP2;ratioP2;P2;SDS_P1;SDS_P2;PMS_P1;PMS_P2;Temp;Humidity;BMP_temperature;BMP_pressure;BME280_temperature;BME280_humidity;BME280_pressure;Samples;Min_cycle;Max_cycle;Signal;HPM_P1;HPM_P2
2022/08/03 00:00:05;;;;;;;11.37;4.40;;;;;;;19.47;100.00;101294.91;172753;28;891;-64
2022/08/03 00:00:14;;;;;;;10.57;4.67;;;;;;;19.46;100.00;101295.88;172759;28;958;-64
2022/08/03 00:00:19;;;;;;;12.10;4.70;;;;;;;19.45;100.00;101294.19;172753;28;811;-64
2022/08/03 00:00:25;;;;;;;12.40;4.78;;;;;;;19.44;100.00;101292.50;172643;28;1353;-63
2022/08/03 00:00:30;;;;;;;11.30;4.90;;;;;;;19.43;100.00;101296.09;172730;28;906;-64
2022/08/03 00:00:39;;;;;;;9.80;4.70;;;;;;;19.42;100.00;101297.03;172748;28;982;-64
2022/08/03 00:00:44;;;;;;;10.17;4.53;;;;;;;19.40;100.00;101294.50;172781;28;879;-63
2022/08/03 00:00:49;;;;;;;10.60;4.57;;;;;;;19.39;100.00;101299.91;172740;28;1029;-63
2022/08/03 00:00:55;;;;;;;10.90;4.63;;;;;;;19.39;100.00;101299.91;172672;28;843;-64
2022/08/03 00:01:00;;;;;;;10.70;4.53;;;;;;;19.39;100.00;101299.91;172747;28;854;-63
2022/08/03 00:01:06;;;;;;;11.13;4.47;;;;;;;19.38;100.00;101293.78;173062;28;850;-63
2022/08/03 00:01:16;;;;;;;11.13;4.43;;;;;;;19.38;100.00;101295.59;173425;28;889;-63
2022/08/03 00:01:21;;;;;;;10.61;4.44;;;;;;;19.38;100.00;101296.44;173403;28;1143;-63
2022/08/03 00:01:27;;;;;;;10.40;4.43;;;;;;;19.37;100.00;101296.53;173454;28;947;-64
2022/08/03 00:01:33;;;;;;;11.07;4.53;;;;;;;19.37;100.00;101285.97;173420;28;1048;-63
2022/08/03 00:01:40;;;;;;;11.27;4.70;;;;;;;19.37;100.00;101296.53;173402;28;1059;-64
2022/08/03 00:01:46;;;;;;;11.84;4.74;;;;;;;19.37;100.00;101292.06;173433;28;894;-63
2022/08/03 00:01:51;;;;;;;12.90;4.90;;;;;;;19.36;100.00;101295.69;173463;28;913;-64
2022/08/03 00:01:57;;;;;;;14.33;4.97;;;;;;;19.36;100.00;101295.69;173462;28;783;-64
2022/08/03 00:02:02;;;;;;;13.48;4.80;;;;;;;19.37;100.00;101297.38;173434;28;937;-64
2022/08/03 00:02:08;;;;;;;12.93;4.72;;;;;;;19.38;100.00;101295.59;173470;28;886;-63
2022/08/03 00:02:14;;;;;;;12.83;4.67;;;;;;;19.38;100.00;101298.22;173400;28;1072;-64
2022/08/03 00:02:19;;;;;;;11.30;4.40;;;;;;;19.38;100.00;101299.09;173387;28;1037;-64
2022/08/03 00:02:24;;;;;;;9.70;4.30;;;;;;;19.38;100.00;101293.78;172952;28;854;-63
2022/08/03 00:02:30;;;;;;;9.75;4.30;;;;;;;19.39;100.00;101295.47;172761;28;862;-63
2022/08/03 00:02:35;;;;;;;9.40;4.20;;;;;;;19.39;100.00;101291.97;172766;28;847;-63
2022/08/03 00:02:40;;;;;;;9.97;4.23;;;;;;;19.39;100.00;101286.69;172689;28;969;-63
2022/08/03 00:02:46;;;;;;;9.65;4.32;;;;;;;19.40;100.00;101293.69;172747;28;1049;-64
2022/08/03 00:02:51;;;;;;;9.87;4.50;;;;;;;19.40;100.00;101293.69;172857;28;1079;-63
2022/08/03 00:02:57;;;;;;;9.00;4.50;;;;;;;19.40;100.00;101299.81;173443;28;879;-63
2022/08/03 00:03:02;;;;;;;9.05;4.60;;;;;;;19.40;100.00;101291.84;173409;28;1048;-64
2022/08/03 00:03:07;;;;;;;9.40;4.53;;;;;;;19.40;100.00;101294.50;173452;28;926;-63
2022/08/03 00:03:13;;;;;;;8.97;4.50;;;;;;;19.40;100.00;101291.03;173447;28;875;-64
2022/08/03 00:03:18;;;;;;;8.23;4.47;;;;;;;19.39;100.00;101295.47;173435;28;863;-63
2022/08/03 00:03:23;;;;;;;8.90;4.47;;;;;;;19.39;100.00;101294.63;173428;28;938;-64
2022/08/03 00:03:29;;;;;;;9.55;4.38;;;;;;;19.39;100.00;101294.63;173430;28;1005;-63
2022/08/03 00:03:34;;;;;;;9.13;4.37;;;;;;;19.39;100.00;101294.63;173427;28;879;-63
2022/08/03 00:03:40;;;;;;;9.07;4.50;;;;;;;19.38;100.00;101292.94;172845;28;1189;-63
2022/08/03 00:03:45;;;;;;;9.23;4.45;;;;;;;19.37;100.00;101292.06;173358;28;1053;-64
2022/08/03 00:03:50;;;;;;;9.83;4.60;;;;;;;19.38;100.00;101293.78;173435;28;1033;-63
2022/08/03 00:03:56;;;;;;;9.73;4.60;;;;;;;19.38;100.00;101292.94;173385;28;1017;-63
2022/08/03 00:04:02;;;;;;;9.48;4.65;;;;;;;19.37;100.00;101296.53;173413;28;910;-63
2022/08/03 00:04:09;;;;;;;10.40;4.68;;;;;;;19.38;100.00;101295.59;173459;28;978;-63
2022/08/03 00:04:15;;;;;;;11.40;4.73;;;;;;;19.37;100.00;101292.06;173439;28;1144;-64
2022/08/03 00:04:20;;;;;;;10.93;4.72;;;;;;;19.36;100.00;101298.34;173389;28;927;-64
2022/08/03 00:04:26;;;;;;;10.90;4.78;;;;;;;19.35;100.00;101293.16;173398;28;973;-64
2022/08/03 00:04:31;;;;;;;11.23;4.73;;;;;;;19.33;100.00;101298.56;173421;28;1021;-64
2022/08/03 00:04:37;;;;;;;10.87;4.70;;;;;;;19.32;100.00;101298.69;173480;28;1084;-63
2022/08/03 00:04:42;;;;;;;11.73;4.60;;;;;;;19.32;100.00;101293.41;173420;28;927;-63
2022/08/03 00:04:47;;;;;;;12.63;4.53;;;;;;;19.30;100.00;101296.97;173380;28;1018;-64
2022/08/03 00:04:53;;;;;;;13.27;4.45;;;;;;;19.31;100.00;101292.53;173341;28;927;-63
2022/08/03 00:04:58;;;;;;;12.43;4.40;;;;;;;19.30;100.00;101296.97;173420;28;1037;-63
2022/08/03 00:05:07;;;;;;;12.87;4.40;;;;;;;19.30;100.00;101291.69;173410;28;1136;-63
2022/08/03 00:05:12;;;;;;;12.47;4.46;;;;;;;19.28;100.00;101293.63;173420;28;1046;-64
2022/08/03 00:05:17;;;;;;;12.03;4.60;;;;;;;19.29;100.00;101291.78;173429;28;1045;-64
2022/08/03 00:05:23;;;;;;;12.43;4.60;;;;;;;19.30;100.00;101296.97;173436;28;1042;-64
2022/08/03 00:05:28;;;;;;;15.20;4.80;;;;;;;19.30;100.00;101298.81;173440;28;977;-64
2022/08/03 00:05:34;;;;;;;15.17;4.87;;;;;;;19.29;100.00;101295.28;173330;28;1017;-64
2022/08/03 00:05:39;;;;;;;14.93;4.90;;;;;;;19.31;100.00;101292.53;173451;28;978;-63
2022/08/03 00:05:44;;;;;;;14.50;4.80;;;;;;;19.30;100.00;101291.69;173035;28;847;-64
2022/08/03 00:05:50;;;;;;;14.82;4.95;;;;;;;19.30;100.00;101296.16;172800;28;906;-64
2022/08/03 00:05:55;;;;;;;13.67;4.83;;;;;;;19.30;100.00;101296.97;172767;28;1084;-63
2022/08/03 00:06:01;;;;;;;11.20;4.60;;;;;;;19.30;100.00;101291.69;172819;28;891;-63
2022/08/03 00:06:06;;;;;;;11.20;4.53;;;;;;;19.30;100.00;101296.97;172814;28;878;-64
2022/08/03 00:06:11;;;;;;;10.67;4.50;;;;;;;19.30;100.00;101296.16;172825;28;1032;-64
2022/08/03 00:06:17;;;;;;;9.90;4.35;;;;;;;19.30;100.00;101294.34;172836;28;970;-64
2022/08/03 00:06:22;;;;;;;9.33;4.20;;;;;;;19.30;100.00;101291.69;172784;28;1076;-64
2022/08/03 00:06:28;;;;;;;11.07;4.27;;;;;;;19.29;100.00;101295.28;172791;28;934;-64
2022/08/03 00:06:34;;;;;;;11.38;4.30;;;;;;;19.30;100.00;101296.16;172776;28;1041;-63
2022/08/03 00:06:39;;;;;;;11.07;4.40;;;;;;;19.29;100.00;101297.09;172842;28;946;-64
2022/08/03 00:06:44;;;;;;;10.47;4.40;;;;;;;19.28;100.00;101288.31;173316;28;923;-64
2022/08/03 00:06:49;;;;;;;12.07;4.53;;;;;;;19.28;100.00;101296.25;173388;28;1033;-64
2022/08/03 00:06:55;;;;;;;11.63;4.63;;;;;;;19.28;100.00;101298.91;173357;28;934;-64
2022/08/03 00:07:00;;;;;;;11.13;4.60;;;;;;;19.28;100.00;101290.97;173411;28;1076;-64
2022/08/03 00:07:06;;;;;;;11.38;4.72;;;;;;;19.28;100.00;101293.63;173433;28;847;-63
2022/08/03 00:07:11;;;;;;;11.77;4.57;;;;;;;19.27;100.00;101297.19;173438;28;855;-64
2022/08/03 00:07:16;;;;;;;11.90;4.60;;;;;;;19.27;100.00;101302.50;173408;28;1039;-64
2022/08/03 00:07:22;;;;;;;10.73;4.60;;;;;;;19.27;100.00;101297.19;173344;28;1099;-64
2022/08/03 00:07:27;;;;;;;10.07;4.60;;;;;;;19.27;100.00;101297.19;173419;28;931;-64
2022/08/03 00:07:34;;;;;;;9.85;4.60;;;;;;;19.27;100.00;101297.19;173385;28;965;-64
2022/08/03 00:07:40;;;;;;;10.48;4.75;;;;;;;19.27;100.00;101296.38;173427;28;1132;-64
2022/08/03 00:07:45;;;;;;;10.10;4.70;;;;;;;19.27;100.00;101291.91;173435;28;981;-64
2022/08/03 00:07:50;;;;;;;10.57;4.60;;;;;;;19.28;100.00;101293.63;173399;28;996;-64
2022/08/03 00:07:55;;;;;;;10.40;4.50;;;;;;;19.27;100.00;101291.91;173362;28;1049;-64
2022/08/03 00:08:01;;;;;;;11.00;4.47;;;;;;;19.27;100.00;101291.91;172683;28;1478;-63
2022/08/03 00:08:06;;;;;;;13.00;4.40;;;;;;;19.27;100.00;101291.91;172743;28;1018;-63
2022/08/03 00:08:12;;;;;;;12.27;4.40;;;;;;;19.28;100.00;101293.63;172774;28;1054;-63
2022/08/03 00:08:17;;;;;;;12.80;4.50;;;;;;;19.28;100.00;101293.63;172735;28;874;-64
2022/08/03 00:08:23;;;;;;;12.93;4.53;;;;;;;19.28;100.00;101296.25;172742;28;930;-64
2022/08/03 00:08:28;;;;;;;13.57;4.60;;;;;;;19.28;100.00;101296.25;172736;28;930;-64
2022/08/03 00:08:33;;;;;;;12.70;4.60;;;;;;;19.28;100.00;101290.97;172725;28;1061;-64
2022/08/03 00:08:39;;;;;;;11.25;4.65;;;;;;;19.29;100.00;101294.44;172783;28;1111;-64
2022/08/03 00:08:44;;;;;;;11.40;4.67;;;;;;;19.28;100.00;101290.97;172696;28;859;-63
2022/08/03 00:08:50;;;;;;;11.50;4.68;;;;;;;19.28;100.00;101295.41;172726;28;1458;-64
2022/08/03 00:08:55;;;;;;;10.97;4.67;;;;;;;19.27;100.00;101299.84;172702;28;1085;-64
2022/08/03 00:09:00;;;;;;;10.70;4.60;;;;;;;19.28;100.00;101293.63;172690;28;1053;-64
2022/08/03 00:09:06;;;;;;;11.73;4.63;;;;;;;19.29;100.00;101295.28;172760;28;1046;-64
2022/08/03 00:09:11;;;;;;;11.37;4.60;;;;;;;19.29;100.00;101294.44;172774;28;958;-63
2022/08/03 00:09:17;;;;;;;11.38;4.65;;;;;;;19.29;100.00;101290.00;172711;28;1093;-64
2022/08/03 00:09:22;;;;;;;12.00;4.70;;;;;;;19.28;100.00;101290.97;172732;28;1080;-63
2022/08/03 00:09:29;;;;;;;13.07;4.73;;;;;;;19.28;100.00;101290.97;172734;28;894;-64
2022/08/03 00:09:35;;;;;;;12.85;4.80;;;;;;;19.28;100.00;101288.31;172735;28;1005;-64
2022/08/03 00:09:40;;;;;;;12.93;4.70;;;;;;;19.29;100.00;101289.16;172786;28;927;-64
2022/08/03 00:09:46;;;;;;;13.27;4.65;;;;;;;19.29;100.00;101295.28;171991;28;931;-64
2022/08/03 00:09:51;;;;;;;13.07;4.57;;;;;;;19.28;100.00;101283.03;172021;28;958;-64
2022/08/03 00:09:56;;;;;;;12.90;4.77;;;;;;;19.29;100.00;101284.72;172069;28;895;-64
2022/08/03 00:10:02;;;;;;;13.43;4.80;;;;;;;19.28;100.00;101293.63;172637;28;946;-63
2022/08/03 00:10:08;;;;;;;13.10;4.87;;;;;;;19.30;100.00;101290.88;172768;28;910;-64
2022/08/03 00:10:13;;;;;;;12.27;5.03;;;;;;;19.30;100.00;101294.34;172777;28;883;-64
2022/08/03 00:10:19;;;;;;;12.70;5.30;;;;;;;19.30;100.00;101289.03;172775;28;993;-63
2022/08/03 00:10:25;;;;;;;12.30;5.30;;;;;;;19.30;100.00;101296.16;172731;28;1142;-64
2022/08/03 00:10:31;;;;;;;12.82;5.26;;;;;;;19.29;100.00;101295.28;172727;28;946;-64
2022/08/03 00:10:37;;;;;;;13.20;5.30;;;;;;;19.29;100.00;101295.28;172722;28;942;-64
2022/08/03 00:10:42;;;;;;;13.20;5.30;;;;;;;19.29;100.00;101294.44;172788;28;890;-63
2022/08/03 00:10:47;;;;;;;13.10;5.20;;;;;;;19.27;100.00;101294.53;172680;28;970;-64
2022/08/03 00:10:53;;;;;;;13.85;5.10;;;;;;;19.27;100.00;101291.91;172734;28;851;-64
2022/08/03 00:10:59;;;;;;;13.13;4.97;;;;;;;19.27;100.00;101294.53;172736;28;919;-64
2022/08/03 00:11:05;;;;;;;12.23;4.83;;;;;;;19.26;100.00;101295.50;172649;28;1037;-64
2022/08/03 00:11:11;;;;;;;11.67;4.80;;;;;;;19.26;100.00;101289.41;172797;28;902;-64
2022/08/03 00:11:16;;;;;;;11.13;4.60;;;;;;;19.25;100.00;101296.47;172727;28;1073;-64
2022/08/03 00:11:22;;;;;;;9.75;4.63;;;;;;;19.26;100.00;101292.03;172753;28;1045;-64
2022/08/03 00:11:27;;;;;;;9.20;4.70;;;;;;;19.26;100.00;101294.69;171969;28;1396;-64
2022/08/03 00:11:34;;;;;;;9.45;4.75;;;;;;;19.26;100.00;101295.50;172073;28;851;-64
2022/08/03 00:11:39;;;;;;;10.70;4.90;;;;;;;19.25;100.00;101288.53;172124;28;1045;-64
2022/08/03 00:11:44;;;;;;;11.93;4.90;;;;;;;19.24;100.00;101296.59;172471;28;1034;-64
2022/08/03 00:11:50;;;;;;;11.77;4.97;;;;;;;19.24;100.00;101292.16;172727;28;1088;-64
2022/08/03 00:11:55;;;;;;;11.33;4.90;;;;;;;19.25;100.00;101292.97;172733;28;1120;-63
2022/08/03 00:12:00;;;;;;;10.88;4.80;;;;;;;19.24;100.00;101292.16;172733;28;1120;-64
2022/08/03 00:12:06;;;;;;;10.90;4.73;;;;;;;19.24;100.00;101292.16;172710;28;1034;-64
2022/08/03 00:12:11;;;;;;;10.37;4.80;;;;;;;19.24;100.00;101288.66;172762;28;1034;-63
2022/08/03 00:12:17;;;;;;;9.82;4.78;;;;;;;19.24;100.00;101293.94;172734;28;1042;-63
2022/08/03 00:12:22;;;;;;;10.67;4.80;;;;;;;19.25;100.00;101293.84;172728;28;1049;-64
2022/08/03 00:12:27;;;;;;;10.77;4.78;;;;;;;19.25;100.00;101290.34;172721;28;1030;-64
2022/08/03 00:12:35;;;;;;;11.40;4.80;;;;;;;19.24;100.00;101294.78;172740;28;993;-63
2022/08/03 00:12:40;;;;;;;11.50;4.63;;;;;;;19.24;100.00;101292.16;172815;28;906;-64
2022/08/03 00:12:45;;;;;;;13.05;4.65;;;;;;;19.24;100.00;101292.16;172734;28;970;-63
2022/08/03 00:12:52;;;;;;;13.13;4.60;;;;;;;19.25;100.00;101288.53;172776;28;922;-63
2022/08/03 00:12:57;;;;;;;13.52;4.60;;;;;;;19.25;100.00;101296.47;172752;28;863;-63
2022/08/03 00:13:03;;;;;;;13.02;4.60;;;;;;;19.25;100.00;101293.84;172727;28;1108;-63
2022/08/03 00:13:11;;;;;;;13.07;4.67;;;;;;;19.25;100.00;101292.97;172782;28;914;-63
2022/08/03 00:13:18;;;;;;;13.07;4.81;;;;;;;19.25;100.00;101293.84;172715;28;1107;-64
2022/08/03 00:13:24;;;;;;;13.60;4.90;;;;;;;19.26;100.00;101294.69;172766;28;981;-64
2022/08/03 00:13:30;;;;;;;13.65;4.90;;;;;;;19.25;100.00;101291.19;172704;28;2080;-64
2022/08/03 00:13:35;;;;;;;12.57;4.80;;;;;;;19.26;100.00;101299.97;172828;28;1045;-64
2022/08/03 00:13:40;;;;;;;12.45;4.85;;;;;;;19.25;100.00;101293.84;172871;28;1025;-64
2022/08/03 00:13:46;;;;;;;11.63;4.90;;;;;;;19.26;100.00;101297.34;172805;28;1115;-64
2022/08/03 00:13:52;;;;;;;11.48;4.85;;;;;;;19.26;100.00;101294.69;172792;28;1041;-63
2022/08/03 00:13:57;;;;;;;10.63;4.80;;;;;;;19.26;100.00;101300.81;172785;28;927;-63
2022/08/03 00:14:05;;;;;;;12.52;4.80;;;;;;;19.26;100.00;101292.88;172825;28;910;-63
2022/08/03 00:14:10;;;;;;;13.25;4.83;;;;;;;19.26;100.00;101295.50;172830;28;984;-64
2022/08/03 00:14:16;;;;;;;13.30;4.97;;;;;;;19.27;100.00;101294.53;172852;28;926;-64
2022/08/03 00:14:21;;;;;;;12.40;5.10;;;;;;;19.26;100.00;101289.41;172815;28;927;-64
2022/08/03 00:14:27;;;;;;;13.80;5.18;;;;;;;19.27;100.00;101288.44;172833;28;942;-64
2022/08/03 00:14:32;;;;;;;12.27;5.17;;;;;;;19.26;100.00;101295.50;172805;28;984;-63
2022/08/03 00:14:37;;;;;;;11.55;5.15;;;;;;;19.26;100.00;101290.22;173341;28;915;-64
2022/08/03 00:14:43;;;;;;;10.67;4.97;;;;;;;19.26;100.00;101290.22;173402;28;1032;-63
2022/08/03 00:14:48;;;;;;;10.27;4.80;;;;;;;19.27;100.00;101294.53;173378;28;910;-63
2022/08/03 00:14:53;;;;;;;10.70;4.75;;;;;;;19.27;100.00;101296.38;173445;28;847;-64
2022/08/03 00:14:59;;;;;;;10.13;4.73;;;;;;;19.26;100.00;101292.03;173441;28;879;-63
2022/08/03 00:15:05;;;;;;;10.90;4.90;;;;;;;19.26;100.00;101290.22;173429;28;1025;-64
2022/08/03 00:15:10;;;;;;;10.45;4.80;;;;;;;19.27;100.00;101293.72;173457;28;957;-63
2022/08/03 00:15:16;;;;;;;10.90;4.90;;;;;;;19.27;100.00;101294.53;173366;28;1084;-64
2022/08/03 00:15:21;;;;;;;11.03;4.90;;;;;;;19.28;100.00;101292.75;173399;28;1108;-64
2022/08/03 00:15:27;;;;;;;12.63;5.05;;;;;;;19.27;100.00;101291.09;173432;28;1021;-63
2022/08/03 00:15:32;;;;;;;12.97;5.00;;;;;;;19.26;100.00;101287.56;173396;28;1033;-63
2022/08/03 00:15:41;;;;;;;13.27;5.13;;;;;;;19.28;100.00;101293.63;173385;28;1049;-64
2022/08/03 00:15:46;;;;;;;13.46;5.19;;;;;;;19.28;100.00;101293.63;173413;28;1070;-64
2022/08/03 00:15:53;;;;;;;12.27;5.10;;;;;;;19.28;100.00;101292.75;172409;28;839;-63
2022/08/03 00:15:58;;;;;;;9.90;4.93;;;;;;;19.28;100.00;101292.75;172597;28;1104;-63
2022/08/03 00:16:04;;;;;;;8.75;4.82;;;;;;;19.28;100.00;101293.63;173403;28;950;-64
2022/08/03 00:16:10;;;;;;;8.65;4.80;;;;;;;19.28;100.00;101290.97;173492;28;819;-64
2022/08/03 00:16:16;;;;;;;9.10;4.75;;;;;;;19.28;100.00;101288.31;173423;28;903;-63
2022/08/03 00:16:23;;;;;;;10.13;4.93;;;;;;;19.27;100.00;101294.53;173428;28;1009;-64
2022/08/03 00:16:28;;;;;;;11.88;5.04;;;;;;;19.28;100.00;101287.47;173405;28;944;-64
2022/08/03 00:16:34;;;;;;;13.27;5.13;;;;;;;19.28;100.00;101287.47;173388;28;796;-63
2022/08/03 00:16:40;;;;;;;12.77;5.00;;;;;;;19.28;100.00;101287.47;172843;28;894;-63
2022/08/03 00:16:45;;;;;;;12.33;5.00;;;;;;;19.28;100.00;101288.31;172815;28;922;-64
2022/08/03 00:16:50;;;;;;;12.30;4.93;;;;;;;19.29;100.00;101289.16;172803;28;914;-64
2022/08/03 00:16:56;;;;;;;12.65;4.90;;;;;;;19.29;100.00;101289.16;172787;28;1206;-63
2022/08/03 00:17:02;;;;;;;12.15;4.90;;;;;;;19.28;100.00;101288.31;172798;28;926;-63
2022/08/03 00:17:07;;;;;;;12.43;4.95;;;;;;;19.27;100.00;101297.19;172806;28;993;-64
2022/08/03 00:17:13;;;;;;;12.03;4.90;;;;;;;19.28;100.00;101285.69;172850;28;931;-64
2022/08/03 00:17:18;;;;;;;12.23;4.80;;;;;;;19.29;100.00;101289.16;172772;28;911;-63
2022/08/03 00:17:23;;;;;;;10.95;4.80;;;;;;;19.28;100.00;101292.75;172764;28;1104;-63
2022/08/03 00:17:29;;;;;;;10.17;4.67;;;;;;;19.29;100.00;101289.16;172799;28;1104;-64
2022/08/03 00:17:34;;;;;;;10.02;4.78;;;;;;;19.28;100.00;101293.63;172810;28;996;-63
2022/08/03 00:17:39;;;;;;;10.83;4.80;;;;;;;19.28;100.00;101288.31;173403;28;891;-64
2022/08/03 00:17:45;;;;;;;11.20;4.77;;;;;;;19.28;100.00;101290.97;173317;28;1731;-63
2022/08/03 00:17:50;;;;;;;10.98;4.68;;;;;;;19.29;100.00;101283.84;173409;28;1021;-63
2022/08/03 00:17:56;;;;;;;11.90;4.60;;;;;;;19.30;100.00;101291.69;173393;28;854;-64
2022/08/03 00:18:01;;;;;;;13.40;4.60;;;;;;;19.29;100.00;101290.00;173416;28;1029;-64
2022/08/03 00:18:08;;;;;;;14.00;4.63;;;;;;;19.29;100.00;101287.34;173422;28;1049;-64
2022/08/03 00:18:13;;;;;;;14.47;4.87;;;;;;;19.29;100.00;101290.00;173443;28;1135;-63
2022/08/03 00:18:19;;;;;;;14.43;4.90;;;;;;;19.29;100.00;101292.66;173418;28;982;-64
2022/08/03 00:18:24;;;;;;;13.52;4.90;;;;;;;19.29;100.00;101283.84;173425;28;970;-63
2022/08/03 00:18:30;;;;;;;13.13;5.00;;;;;;;19.28;100.00;101293.63;173430;28;1096;-63
2022/08/03 00:18:36;;;;;;;12.17;4.93;;;;;;;19.27;100.00;101286.63;173406;28;953;-63
2022/08/03 00:18:42;;;;;;;10.74;4.70;;;;;;;19.27;100.00;101294.53;173461;28;1140;-64
2022/08/03 00:18:47;;;;;;;10.20;4.63;;;;;;;19.26;100.00;101294.69;173398;28;1029;-64
2022/08/03 00:18:52;;;;;;;10.30;4.75;;;;;;;19.26;100.00;101294.69;173439;28;1033;-63
2022/08/03 00:18:58;;;;;;;9.73;4.67;;;;;;;19.25;100.00;101293.84;173412;28;871;-64
2022/08/03 00:19:03;;;;;;;9.93;4.72;;;;;;;19.24;100.00;101289.50;173384;28;1084;-64
2022/08/03 00:19:09;;;;;;;10.27;4.97;;;;;;;19.24;100.00;101289.50;173445;28;878;-63
2022/08/03 00:19:14;;;;;;;11.50;5.20;;;;;;;19.23;100.00;101290.44;173404;28;926;-63
2022/08/03 00:19:20;;;;;;;11.43;5.30;;;;;;;19.23;100.00;101290.44;173418;28;866;-63
2022/08/03 00:19:25;;;;;;;12.00;5.23;;;;;;;19.22;100.00;101288.75;173275;28;756;-63
2022/08/03 00:19:30;;;;;;;12.95;5.40;;;;;;;19.23;100.00;101289.63;173425;28;930;-63
2022/08/03 00:19:36;;;;;;;12.70;5.27;;;;;;;19.23;100.00;101293.09;173439;28;847;-63
2022/08/03 00:19:41;;;;;;;12.40;5.07;;;;;;;19.23;100.00;101289.63;173493;28;913;-64
2022/08/03 00:19:46;;;;;;;11.68;4.90;;;;;;;19.22;100.00;101287.94;172803;28;1080;-63
2022/08/03 00:19:52;;;;;;;12.00;4.87;;;;;;;19.24;100.00;101291.28;172746;28;868;-64
2022/08/03 00:19:57;;;;;;;11.37;4.77;;;;;;;19.23;100.00;101293.09;172833;28;839;-63
2022/08/03 00:20:03;;;;;;;10.95;4.65;;;;;;;19.23;100.00;101295.72;172804;28;844;-63
2022/08/03 00:20:09;;;;;;;10.73;4.60;;;;;;;19.24;100.00;101292.16;172817;28;1018;-63
2022/08/03 00:20:15;;;;;;;11.63;4.70;;;;;;;19.24;100.00;101292.16;172805;28;1057;-63
2022/08/03 00:20:21;;;;;;;10.97;4.73;;;;;;;19.24;100.00;101291.28;172786;28;1026;-64
2022/08/03 00:20:27;;;;;;;9.88;4.70;;;;;;;19.23;100.00;101293.09;172784;28;926;-63
2022/08/03 00:20:32;;;;;;;10.13;4.70;;;;;;;19.24;100.00;101291.28;172683;28;1077;-64
2022/08/03 00:20:38;;;;;;;10.70;4.70;;;;;;;19.24;100.00;101293.94;172797;28;1093;-63
2022/08/03 00:20:43;;;;;;;9.93;4.63;;;;;;;19.24;100.00;101293.94;172838;28;974;-64
2022/08/03 00:20:49;;;;;;;9.63;4.43;;;;;;;19.24;100.00;101292.16;172800;28;859;-63
2022/08/03 00:20:54;;;;;;;10.80;4.47;;;;;;;19.24;100.00;101293.94;172653;28;986;-64
2022/08/03 00:21:00;;;;;;;10.30;4.40;;;;;;;19.23;100.00;101293.09;172781;28;839;-64
2022/08/03 00:21:06;;;;;;;10.60;4.47;;;;;;;19.24;100.00;101297.44;172744;28;1002;-63
2022/08/03 00:21:11;;;;;;;12.10;4.73;;;;;;;19.25;100.00;101295.63;172745;28;1108;-64
2022/08/03 00:21:16;;;;;;;12.75;4.90;;;;;;;19.25;100.00;101292.97;172733;28;1041;-63
2022/08/03 00:21:22;;;;;;;11.67;4.87;;;;;;;19.25;100.00;101298.28;172675;28;1093;-64
2022/08/03 00:21:28;;;;;;;11.48;4.78;;;;;;;19.24;100.00;101292.16;172636;28;867;-64
2022/08/03 00:21:33;;;;;;;12.00;4.90;;;;;;;19.25;100.00;101290.34;172722;28;855;-63
2022/08/03 00:21:38;;;;;;;10.97;4.63;;;;;;;19.24;100.00;101291.28;172717;28;835;-64
2022/08/03 00:21:44;;;;;;;10.17;4.50;;;;;;;19.25;100.00;101292.97;172750;28;1045;-64
2022/08/03 00:21:49;;;;;;;10.52;4.50;;;;;;;19.24;100.00;101292.16;172776;28;847;-64
2022/08/03 00:21:54;;;;;;;10.80;4.57;;;;;;;19.24;100.00;101286.84;172726;28;839;-64
2022/08/03 00:22:00;;;;;;;10.57;4.60;;;;;;;19.25;100.00;101292.97;172749;28;1029;-64
2022/08/03 00:22:05;;;;;;;10.50;4.53;;;;;;;19.24;100.00;101297.44;172711;28;927;-63
2022/08/03 00:22:10;;;;;;;11.05;4.55;;;;;;;19.24;100.00;101297.44;172695;28;839;-64
2022/08/03 00:22:16;;;;;;;10.27;4.40;;;;;;;19.24;100.00;101296.59;172726;28;1026;-63
2022/08/03 00:22:21;;;;;;;10.20;4.43;;;;;;;19.24;100.00;101297.44;172734;28;1109;-64
2022/08/03 00:22:26;;;;;;;10.45;4.38;;;;;;;19.24;100.00;101293.94;172738;28;907;-64
2022/08/03 00:22:34;;;;;;;9.83;4.30;;;;;;;19.23;100.00;101295.72;172744;28;982;-63
2022/08/03 00:22:39;;;;;;;8.97;4.25;;;;;;;19.24;100.00;101292.16;172754;28;946;-64
2022/08/03 00:22:45;;;;;;;9.53;4.27;;;;;;;19.23;100.00;101287.78;172736;28;966;-64
2022/08/03 00:22:51;;;;;;;10.18;4.30;;;;;;;19.23;100.00;101293.09;172744;28;878;-63
2022/08/03 00:22:56;;;;;;;9.60;4.33;;;;;;;19.23;100.00;101290.44;172769;28;1034;-63
2022/08/03 00:23:03;;;;;;;9.95;4.40;;;;;;;19.24;100.00;101296.59;172799;28;848;-64
2022/08/03 00:23:08;;;;;;;9.77;4.60;;;;;;;19.23;100.00;101292.25;172740;28;1061;-63
2022/08/03 00:23:14;;;;;;;10.23;4.80;;;;;;;19.24;100.00;101291.28;172868;28;831;-64
2022/08/03 00:23:19;;;;;;;10.20;4.80;;;;;;;19.23;100.00;101290.44;172810;28;1081;-64
2022/08/03 00:23:24;;;;;;;11.45;4.93;;;;;;;19.23;100.00;101298.38;172810;28;966;-63
2022/08/03 00:23:30;;;;;;;11.57;5.03;;;;;;;19.24;100.00;101291.28;172804;28;914;-63
2022/08/03 00:23:36;;;;;;;12.85;5.05;;;;;;;19.23;100.00;101290.44;172605;28;956;-64
2022/08/03 00:23:42;;;;;;;13.80;4.80;;;;;;;19.24;100.00;101293.94;172811;28;1128;-63
2022/08/03 00:23:48;;;;;;;13.45;4.70;;;;;;;19.23;100.00;101290.44;172747;28;943;-64
2022/08/03 00:23:53;;;;;;;12.60;4.70;;;;;;;19.24;100.00;101294.78;172766;28;978;-63
2022/08/03 00:23:58;;;;;;;11.55;4.43;;;;;;;19.24;100.00;101294.78;172811;28;847;-63
2022/08/03 00:24:04;;;;;;;10.83;4.33;;;;;;;19.23;100.00;101295.72;173351;28;969;-63
2022/08/03 00:24:09;;;;;;;9.90;4.40;;;;;;;19.23;100.00;101290.44;173462;28;903;-63
2022/08/03 00:24:15;;;;;;;8.60;4.30;;;;;;;19.23;100.00;101287.78;173424;28;855;-63
2022/08/03 00:24:20;;;;;;;8.10;4.22;;;;;;;19.24;100.00;101291.28;173408;28;1084;-62
2022/08/03 00:24:25;;;;;;;8.73;4.20;;;;;;;19.23;100.00;101295.72;173395;28;1045;-63
2022/08/03 00:24:31;;;;;;;9.03;4.30;;;;;;;19.23;100.00;101295.72;173433;28;1005;-62
2022/08/03 00:24:36;;;;;;;9.18;4.35;;;;;;;19.23;100.00;101290.44;173385;28;1088;-63
2022/08/03 00:24:41;;;;;;;10.03;4.50;;;;;;;19.23;100.00;101295.72;173451;28;1295;-62
2022/08/03 00:24:47;;;;;;;10.60;4.60;;;;;;;19.23;100.00;101293.09;173382;28;1037;-62
2022/08/03 00:24:52;;;;;;;11.57;4.72;;;;;;;19.23;100.00;101295.72;173417;28;926;-63
2022/08/03 00:24:58;;;;;;;11.90;4.80;;;;;;;19.24;100.00;101296.59;173397;28;1073;-63
2022/08/03 00:25:05;;;;;;;12.23;4.80;;;;;;;19.23;100.00;101295.72;173424;28;1131;-62
2022/08/03 00:25:10;;;;;;;11.07;4.70;;;;;;;19.23;100.00;101295.72;173486;28;878;-63
2022/08/03 00:25:16;;;;;;;10.87;4.63;;;;;;;19.23;100.00;101295.72;173420;28;839;-63
2022/08/03 00:25:22;;;;;;;10.20;4.50;;;;;;;19.23;100.00;101290.44;173425;28;1061;-62
2022/08/03 00:25:27;;;;;;;9.87;4.47;;;;;;;19.22;100.00;101299.34;173431;28;1037;-62
2022/08/03 00:25:34;;;;;;;9.70;4.50;;;;;;;19.22;100.00;101294.03;173388;28;922;-63
2022/08/03 00:25:39;;;;;;;9.86;4.60;;;;;;;19.22;100.00;101293.22;172619;28;1106;-63
2022/08/03 00:25:45;;;;;;;9.87;4.60;;;;;;;19.22;100.00;101293.22;172695;28;764;-62
2022/08/03 00:25:50;;;;;;;9.70;4.75;;;;;;;19.21;100.00;101296.81;172752;28;902;-62
2022/08/03 00:25:56;;;;;;;9.17;4.80;;;;;;;19.21;100.00;101292.38;172653;28;1444;-63
2022/08/03 00:26:02;;;;;;;10.02;4.90;;;;;;;19.20;100.00;101295.97;172721;28;1038;-62
2022/08/03 00:26:08;;;;;;;9.93;4.88;;;;;;;19.20;100.00;101295.13;172759;28;990;-62
2022/08/03 00:26:13;;;;;;;10.52;4.95;;;;;;;19.19;100.00;101299.56;172789;28;843;-63
2022/08/03 00:26:20;;;;;;;11.00;4.90;;;;;;;19.18;100.00;101295.22;172713;28;1085;-63
2022/08/03 00:26:25;;;;;;;17.57;4.83;;;;;;;19.17;100.00;101297.00;172762;28;930;-62
2022/08/03 00:26:31;;;;;;;17.47;4.83;;;;;;;19.18;100.00;101292.59;172725;28;851;-63